createdAt,value
2019-04-07T00:00:15.444Z,4.35
2019-04-07T00:02:47.567Z,5.78
2019-04-07T00:05:19.551Z,4.22
2019-04-07T00:07:52.084Z,4.20
2019-04-07T00:10:23.709Z,3.47
2019-04-07T00:12:55.201Z,3.65
2019-04-07T00:15:26.488Z,4.25
2019-04-07T00:17:58.344Z,3.45
2019-04-07T00:23:00.991Z,4.28
2019-04-07T00:25:33.059Z,5.12
2019-04-07T00:28:04.506Z,3.30
2019-04-07T00:30:36.532Z,4.20
2019-04-07T00:33:08.535Z,3.08
2019-04-07T00:35:39.727Z,4.10
2019-04-07T00:38:11.473Z,4.83
2019-04-07T00:40:43.789Z,4.33
2019-04-07T00:43:15.373Z,3.70
2019-04-07T00:45:47.023Z,4.75
2019-04-07T00:50:49.372Z,3.75
2019-04-07T00:55:54.204Z,3.45
2019-04-07T00:58:26.931Z,5.00
2019-04-07T01:03:29.134Z,5.40
2019-04-07T01:06:01.193Z,4.62
2019-04-07T01:08:32.659Z,4.78
2019-04-07T01:11:04.652Z,5.15
2019-04-07T01:13:37.341Z,5.17
2019-04-07T01:16:09.795Z,5.65
2019-04-07T01:18:41.471Z,5.62
2019-04-07T01:21:13.823Z,4.70
2019-04-07T01:23:46.830Z,3.58
2019-04-07T01:28:48.684Z,4.67
2019-04-07T01:31:22.565Z,3.50
2019-04-07T01:33:54.457Z,5.08
2019-04-07T01:36:26.529Z,5.03
2019-04-07T01:38:58.713Z,5.03
2019-04-07T01:41:47.246Z,5.17
2019-04-07T01:44:27.648Z,5.80
2019-04-07T01:47:15.083Z,5.08
2019-04-07T01:49:52.394Z,8.05
2019-04-07T01:52:45.863Z,6.20
2019-04-07T01:55:36.717Z,5.42
2019-04-07T01:58:20.040Z,8.40
2019-04-07T02:01:10.833Z,7.53
2019-04-07T02:03:51.137Z,7.62
2019-04-07T02:06:47.760Z,7.10
2019-04-07T02:09:25.044Z,6.22
2019-04-07T02:12:14.739Z,7.50
2019-04-07T02:15:17.411Z,8.38
2019-04-07T02:18:08.014Z,6.92
2019-04-07T02:21:08.498Z,6.17
2019-04-07T02:24:06.416Z,7.30
2019-04-07T02:27:02.746Z,8.70
2019-04-07T02:29:52.149Z,7.67
2019-04-07T02:32:52.538Z,8.08
2019-04-07T02:35:41.965Z,8.93
2019-04-07T02:38:28.116Z,11.00
2019-04-07T02:41:17.836Z,7.95
2019-04-07T02:44:23.917Z,9.03
2019-04-07T02:47:26.311Z,12.50
2019-04-07T02:53:04.054Z,10.05
2019-04-07T02:55:45.552Z,8.50
2019-04-07T02:58:31.299Z,8.43
2019-04-07T03:01:26.142Z,8.90
2019-04-07T03:04:07.498Z,9.43
2019-04-07T03:07:04.918Z,9.33
2019-04-07T03:09:49.153Z,10.13
2019-04-07T03:12:37.288Z,8.50
2019-04-07T03:15:34.321Z,9.63
2019-04-07T03:18:42.795Z,9.90
2019-04-07T03:21:38.862Z,7.15
2019-04-07T03:24:41.208Z,8.28
2019-04-07T03:27:36.707Z,8.23
2019-04-07T03:30:27.083Z,7.25
2019-04-07T03:33:09.967Z,6.50
2019-04-07T03:36:12.824Z,6.45
2019-04-07T03:38:55.760Z,6.83
2019-04-07T03:41:42.315Z,7.90
2019-04-07T03:44:41.601Z,9.10
2019-04-07T03:47:35.498Z,7.05
2019-04-07T03:50:18.620Z,8.33
2019-04-07T03:53:08.213Z,9.68
2019-04-07T03:55:49.455Z,10.20
2019-04-07T03:58:49.416Z,7.75
2019-04-07T04:01:39.579Z,9.15
2019-04-07T04:04:45.731Z,9.63
2019-04-07T04:07:30.727Z,6.22
2019-04-07T04:10:01.970Z,6.17
2019-04-07T04:12:56.320Z,6.90
2019-04-07T04:15:31.797Z,10.28
2019-04-07T04:18:03.417Z,8.73
2019-04-07T04:23:06.304Z,7.22
2019-04-07T04:25:38.512Z,9.08
2019-04-07T04:28:10.138Z,7.72
2019-04-07T04:30:41.993Z,6.60
2019-04-07T04:33:13.439Z,8.20
2019-04-07T04:35:44.664Z,6.03
2019-04-07T04:38:16.683Z,6.58
2019-04-07T04:40:48.055Z,5.97
2019-04-07T04:43:19.790Z,9.18
2019-04-07T04:48:25.962Z,6.47
2019-04-07T04:50:58.053Z,6.95
2019-04-07T04:53:30.705Z,7.60
2019-04-07T04:56:02.979Z,7.25
2019-04-07T04:58:34.885Z,7.08
2019-04-07T05:03:38.340Z,7.00
2019-04-07T05:06:10.304Z,6.53
2019-04-07T05:08:43.297Z,7.95
2019-04-07T05:11:14.704Z,5.62
2019-04-07T05:13:46.727Z,6.33
2019-04-07T05:16:18.729Z,7.15
2019-04-07T05:18:50.646Z,5.50
2019-04-07T05:21:21.827Z,7.65
2019-04-07T05:23:53.903Z,8.65
2019-04-07T05:26:25.600Z,7.60
2019-04-07T05:28:56.869Z,7.62
2019-04-07T05:31:28.335Z,6.75
2019-04-07T05:34:00.398Z,6.95
2019-04-07T05:36:32.497Z,7.90
2019-04-07T05:39:06.534Z,6.30
2019-04-07T05:41:38.570Z,6.78
2019-04-07T05:44:10.037Z,7.95
2019-04-07T05:46:42.527Z,6.40
2019-04-07T05:49:16.239Z,6.62
2019-04-07T05:51:47.216Z,8.05
2019-04-07T05:54:19.760Z,7.33
2019-04-07T05:56:52.553Z,7.53
2019-04-07T05:59:24.248Z,6.35
2019-04-07T06:01:59.847Z,6.87
2019-04-07T06:04:29.099Z,6.30
2019-04-07T06:07:01.212Z,7.20
2019-04-07T06:09:33.821Z,7.67
2019-04-07T06:12:08.515Z,7.85
2019-04-07T06:14:38.934Z,7.20
2019-04-07T06:17:10.816Z,6.83
2019-04-07T06:19:42.358Z,7.05
2019-04-07T06:22:17.455Z,7.37
2019-04-07T06:24:47.105Z,8.98
2019-04-07T06:29:50.119Z,7.42
2019-04-07T06:32:21.905Z,6.97
2019-04-07T06:37:27.787Z,9.43
2019-04-07T06:39:57.726Z,7.70
2019-04-07T06:42:33.197Z,7.60
2019-04-07T06:45:02.350Z,7.70
2019-04-07T06:47:46.004Z,10.15
2019-04-07T06:50:47.555Z,9.35
2019-04-07T06:53:20.171Z,8.38
2019-04-07T06:56:08.982Z,8.38
2019-04-07T06:59:17.640Z,9.55
2019-04-07T07:02:07.351Z,11.83
2019-04-07T07:04:49.750Z,9.40
2019-04-07T07:07:48.195Z,7.80
2019-04-07T07:10:40.135Z,8.85
2019-04-07T07:13:35.448Z,7.35
2019-04-07T07:16:31.794Z,8.75
2019-04-07T07:19:33.176Z,8.73
2019-04-07T07:22:16.558Z,8.40
2019-04-07T07:24:49.101Z,8.58
2019-04-07T07:27:20.814Z,9.23
2019-04-07T07:29:53.738Z,7.95
2019-04-07T07:32:25.940Z,7.92
2019-04-07T07:34:57.586Z,8.35
2019-04-07T07:37:29.012Z,8.75
2019-04-07T07:40:01.016Z,9.43
2019-04-07T07:42:32.981Z,8.25
2019-04-07T07:45:08.229Z,8.95
2019-04-07T07:47:38.385Z,8.98
2019-04-07T07:50:10.278Z,8.23
2019-04-07T07:52:43.264Z,10.58
2019-04-07T07:57:45.722Z,8.43
2019-04-07T08:00:17.264Z,8.78
2019-04-07T08:02:51.475Z,11.08
2019-04-07T08:05:22.732Z,8.93
2019-04-07T08:07:55.160Z,9.85
2019-04-07T08:10:27.613Z,9.33
2019-04-07T08:12:59.652Z,8.05
2019-04-07T08:15:33.223Z,8.20
2019-04-07T08:18:07.166Z,8.83
2019-04-07T08:20:38.449Z,7.97
2019-04-07T08:23:11.833Z,9.28
2019-04-07T08:25:43.745Z,9.10
2019-04-07T08:28:15.798Z,45.95
2019-04-07T08:30:49.061Z,346.70
2019-04-07T08:33:20.435Z,170.60
2019-04-07T08:35:54.859Z,58.17
2019-04-07T08:38:27.987Z,33.15
2019-04-07T08:40:59.483Z,44.50
2019-04-07T08:43:31.920Z,14.73
2019-04-07T08:46:05.053Z,12.40
2019-04-07T08:48:37.432Z,14.18
2019-04-07T08:53:43.567Z,14.50
2019-04-07T08:56:13.988Z,20.02
2019-04-07T08:58:45.986Z,10.88
2019-04-07T09:01:20.365Z,10.40
2019-04-07T09:03:51.896Z,12.60
2019-04-07T09:06:27.268Z,11.22
2019-04-07T09:08:57.376Z,10.43
2019-04-07T09:14:00.191Z,10.58
2019-04-07T09:16:52.839Z,12.37
2019-04-07T09:19:44.331Z,11.93
2019-04-07T09:22:30.741Z,11.53
2019-04-07T09:25:31.927Z,11.18
2019-04-07T09:28:23.739Z,12.33
2019-04-07T09:31:11.987Z,11.18
2019-04-07T09:33:58.554Z,11.03
2019-04-07T09:36:51.283Z,12.78
2019-04-07T09:39:34.014Z,13.15
2019-04-07T09:42:18.615Z,16.27
2019-04-07T09:45:12.746Z,14.68
2019-04-07T09:48:07.594Z,14.43
2019-04-07T09:50:55.180Z,16.85
2019-04-07T09:53:33.790Z,16.57
2019-04-07T09:56:32.870Z,16.77
2019-04-07T09:59:20.573Z,18.48
2019-04-07T10:02:14.678Z,16.57
2019-04-07T10:04:55.870Z,17.37
2019-04-07T10:07:45.207Z,18.37
2019-04-07T10:10:39.969Z,22.25
2019-04-07T10:13:34.068Z,20.55
2019-04-07T10:16:24.744Z,21.85
2019-04-07T10:19:24.403Z,19.98
2019-04-07T10:22:13.877Z,26.23
2019-04-07T10:24:58.476Z,25.43
2019-04-07T10:27:48.749Z,24.92
2019-04-07T10:30:41.452Z,26.27
2019-04-07T10:36:11.833Z,25.82
2019-04-07T10:39:02.043Z,27.80
2019-04-07T10:41:48.283Z,27.22
2019-04-07T10:44:44.530Z,26.20
2019-04-07T10:47:38.509Z,30.12
2019-04-07T10:50:27.223Z,28.92
2019-04-07T10:53:31.298Z,26.60
2019-04-07T10:56:30.877Z,29.32
2019-04-07T10:59:24.451Z,30.30
2019-04-07T11:02:23.912Z,35.30
2019-04-07T11:05:13.136Z,29.95
2019-04-07T11:08:02.512Z,32.20
2019-04-07T11:14:31.761Z,34.95
2019-04-07T11:17:22.545Z,35.45
2019-04-07T11:20:01.533Z,34.18
2019-04-07T11:22:47.947Z,35.28
2019-04-07T11:25:29.562Z,36.25
2019-04-07T11:28:23.019Z,35.05
2019-04-07T11:31:13.184Z,34.08
2019-04-07T11:34:16.000Z,35.10
2019-04-07T11:37:10.806Z,37.73
2019-04-07T11:40:04.814Z,35.48
2019-04-07T11:42:50.688Z,36.50
2019-04-07T11:45:39.037Z,36.80
2019-04-07T11:48:29.777Z,36.95
2019-04-07T11:51:26.612Z,37.73
2019-04-07T11:54:14.302Z,36.28
2019-04-07T11:57:07.451Z,34.38
2019-04-07T12:00:03.989Z,37.25
2019-04-07T12:02:51.837Z,34.95
2019-04-07T12:05:35.414Z,36.85
2019-04-07T12:08:25.120Z,35.48
2019-04-07T12:11:06.755Z,34.92
2019-04-07T12:13:57.184Z,36.15
2019-04-07T12:17:02.429Z,39.67
2019-04-07T12:19:54.523Z,36.83
2019-04-07T12:22:44.745Z,38.17
2019-04-07T12:25:37.317Z,39.30
2019-04-07T12:31:20.435Z,42.25
2019-04-07T12:34:12.197Z,43.28
2019-04-07T12:36:54.773Z,38.00
2019-04-07T12:39:47.282Z,36.73
2019-04-07T12:42:35.727Z,38.30
2019-04-07T12:45:30.000Z,39.00
2019-04-07T12:48:21.522Z,41.25
2019-04-07T12:51:19.911Z,39.25
2019-04-07T12:54:12.847Z,35.60
2019-04-07T12:57:15.533Z,37.90
2019-04-07T12:59:59.590Z,36.55
2019-04-07T13:02:47.501Z,35.45
2019-04-07T13:05:41.137Z,35.88
2019-04-07T13:08:34.984Z,35.40
2019-04-07T13:11:25.445Z,40.88
2019-04-07T13:14:10.130Z,166.28
2019-04-07T13:17:02.560Z,428.15
2019-04-07T13:19:49.980Z,340.68
2019-04-07T13:22:37.726Z,376.77
2019-04-07T13:25:25.119Z,271.07
2019-04-07T13:28:08.176Z,235.90
2019-04-07T13:30:56.778Z,232.20
2019-04-07T13:33:39.927Z,214.57
2019-04-07T13:36:33.317Z,166.05
2019-04-07T13:39:23.791Z,155.07
2019-04-07T13:42:18.137Z,137.45
2019-04-07T13:45:13.237Z,118.45
2019-04-07T13:48:06.187Z,98.00
2019-04-07T13:50:49.204Z,91.50
2019-04-07T13:53:38.316Z,77.62
2019-04-07T13:56:19.469Z,68.67
2019-04-07T13:59:10.149Z,68.20
2019-04-07T14:01:54.592Z,63.73
2019-04-07T14:04:56.182Z,64.72
2019-04-07T14:08:04.139Z,57.75
2019-04-07T14:10:55.063Z,55.05
2019-04-07T14:13:37.948Z,49.80
2019-04-07T14:16:33.422Z,45.40
2019-04-07T14:19:11.301Z,45.03
2019-04-07T14:22:04.297Z,41.25
2019-04-07T14:24:56.718Z,39.08
2019-04-07T14:27:38.411Z,39.80
2019-04-07T14:30:33.349Z,31.93
2019-04-07T14:33:17.888Z,30.95
2019-04-07T14:36:15.061Z,30.15
2019-04-07T14:39:05.885Z,29.05
2019-04-07T14:42:05.035Z,27.58
2019-04-07T14:44:47.785Z,28.10
2019-04-07T14:47:27.293Z,26.07
2019-04-07T14:50:25.136Z,26.10
2019-04-07T14:53:18.667Z,26.15
2019-04-07T14:56:15.448Z,25.32
2019-04-07T14:59:04.088Z,23.73
2019-04-07T15:02:00.467Z,23.07
2019-04-07T15:04:35.741Z,19.60
2019-04-07T15:07:26.380Z,20.30
2019-04-07T15:10:05.067Z,20.05
2019-04-07T15:12:44.176Z,19.82
2019-04-07T15:15:16.065Z,19.62
2019-04-07T15:20:17.812Z,18.73
2019-04-07T15:22:49.492Z,18.37
2019-04-07T15:25:22.626Z,18.55
2019-04-07T15:27:58.460Z,21.42
2019-04-07T15:30:28.576Z,18.75
2019-04-07T15:33:02.357Z,19.10
2019-04-07T15:35:34.121Z,18.80
2019-04-07T15:38:05.847Z,22.65
2019-04-07T15:40:37.433Z,19.42
2019-04-07T15:43:10.928Z,19.75
2019-04-07T15:45:44.410Z,19.87
2019-04-07T15:48:17.052Z,19.70
2019-04-07T15:50:49.089Z,20.95
2019-04-07T15:56:01.203Z,21.25
2019-04-07T15:58:26.770Z,20.35
2019-04-07T16:01:00.214Z,20.75
2019-04-07T16:03:33.112Z,19.98
2019-04-07T16:06:04.666Z,19.95
2019-04-07T16:08:36.220Z,22.27
2019-04-07T16:11:08.036Z,21.70
2019-04-07T16:16:11.326Z,18.50
2019-04-07T16:18:43.447Z,22.82
2019-04-07T16:21:18.036Z,20.68
2019-04-07T16:23:52.827Z,19.25
2019-04-07T16:26:22.499Z,20.75
2019-04-07T16:28:55.112Z,21.17
2019-04-07T16:31:27.170Z,20.15
2019-04-07T16:33:59.190Z,19.02
2019-04-07T16:36:30.938Z,18.55
2019-04-07T16:39:03.254Z,19.27
2019-04-07T16:41:35.294Z,18.65
2019-04-07T16:44:09.477Z,17.48
2019-04-07T16:46:41.183Z,18.55
2019-04-07T16:49:13.730Z,19.07
2019-04-07T16:51:47.295Z,19.32
2019-04-07T16:54:19.881Z,18.32
2019-04-07T16:56:55.175Z,18.87
2019-04-07T16:59:25.313Z,19.10
2019-04-07T17:01:57.006Z,17.07
2019-04-07T17:04:29.985Z,18.73
2019-04-07T17:07:04.429Z,17.37
2019-04-07T17:09:36.363Z,22.80
2019-04-07T17:12:10.954Z,18.62
2019-04-07T17:14:42.140Z,19.35
2019-04-07T17:17:16.841Z,17.12
2019-04-07T17:19:46.299Z,18.48
2019-04-07T17:22:18.121Z,18.20
2019-04-07T17:27:20.506Z,18.80
2019-04-07T17:29:55.312Z,18.00
2019-04-07T17:32:26.308Z,18.37
2019-04-07T17:34:58.251Z,18.40
2019-04-07T17:37:29.716Z,18.20
2019-04-07T17:40:13.149Z,18.50
2019-04-07T17:42:42.546Z,18.42
2019-04-07T17:45:37.515Z,19.32
2019-04-07T17:48:38.153Z,16.90
2019-04-07T17:51:23.968Z,18.48
2019-04-07T17:54:29.422Z,16.30
2019-04-07T17:57:20.529Z,16.77
2019-04-07T18:00:11.717Z,18.57
2019-04-07T18:03:06.312Z,17.67
2019-04-07T18:06:00.477Z,17.90
2019-04-07T18:08:45.326Z,20.05
2019-04-07T18:11:54.068Z,17.75
2019-04-07T18:14:33.119Z,17.25
2019-04-07T18:17:44.536Z,17.65
2019-04-07T18:20:32.773Z,17.45
2019-04-07T18:23:37.144Z,15.68
2019-04-07T18:26:31.798Z,17.17
2019-04-07T18:29:23.159Z,17.82
2019-04-07T18:32:14.443Z,17.55
2019-04-07T18:35:14.137Z,16.85
2019-04-07T18:38:04.333Z,16.02
2019-04-07T18:40:46.370Z,17.10
2019-04-07T18:46:28.903Z,18.12
2019-04-07T18:49:18.053Z,17.10
2019-04-07T18:52:08.684Z,16.05
2019-04-07T18:55:00.107Z,19.30
2019-04-07T18:57:48.888Z,20.10
2019-04-07T19:00:32.510Z,17.15
2019-04-07T19:03:16.383Z,16.77
2019-04-07T19:06:06.736Z,18.12
2019-04-07T19:08:58.314Z,18.32
2019-04-07T19:11:35.283Z,18.23
2019-04-07T19:14:39.435Z,18.20
2019-04-07T19:17:25.535Z,19.23
2019-04-07T19:20:19.364Z,17.70
2019-04-07T19:23:12.797Z,16.40
2019-04-07T19:26:01.557Z,16.57
2019-04-07T19:28:51.946Z,17.55
2019-04-07T19:31:50.444Z,17.37
2019-04-07T19:34:49.235Z,17.55
2019-04-07T19:37:35.282Z,17.62
2019-04-07T19:40:35.992Z,16.45
2019-04-07T19:43:29.245Z,19.15
2019-04-07T19:46:06.969Z,17.12
2019-04-07T19:48:50.796Z,17.02
2019-04-07T19:52:02.322Z,15.23
2019-04-07T19:54:57.885Z,18.62
2019-04-07T19:58:04.222Z,16.27
2019-04-07T20:01:10.574Z,15.72
2019-04-07T20:03:53.968Z,15.50
2019-04-07T20:06:44.014Z,19.20
2019-04-07T20:09:27.856Z,22.32
2019-04-07T20:12:11.623Z,21.55
2019-04-07T20:15:14.787Z,21.25
2019-04-07T20:18:18.712Z,23.47
2019-04-07T20:21:18.980Z,20.62
2019-04-07T20:24:01.397Z,20.97
2019-04-07T20:26:56.682Z,21.23
2019-04-07T20:29:41.577Z,21.85
2019-04-07T20:32:29.509Z,18.55
2019-04-07T20:35:18.693Z,22.32
2019-04-07T20:38:15.877Z,20.68
2019-04-07T20:40:52.569Z,20.10
2019-04-07T20:43:30.657Z,20.60
2019-04-07T20:46:27.515Z,18.42
2019-04-07T20:49:34.356Z,21.87
2019-04-07T20:52:30.902Z,21.20
2019-04-07T20:55:24.094Z,19.85
2019-04-07T20:58:16.252Z,18.82
2019-04-07T21:01:07.204Z,17.55
2019-04-07T21:03:59.961Z,18.17
2019-04-07T21:06:57.969Z,16.57
2019-04-07T21:09:46.789Z,18.62
2019-04-07T21:12:45.413Z,17.98
2019-04-07T21:15:41.188Z,18.25
2019-04-07T21:18:38.958Z,18.02
2019-04-07T21:21:35.293Z,19.00
2019-04-07T21:24:27.121Z,17.65
2019-04-07T21:27:06.095Z,19.87
2019-04-07T21:29:56.051Z,18.65
2019-04-07T21:32:38.724Z,18.00
2019-04-07T21:35:47.927Z,18.60
2019-04-07T21:38:42.076Z,17.98
2019-04-07T21:41:47.967Z,16.80
2019-04-07T21:44:51.304Z,17.07
2019-04-07T21:47:33.051Z,18.12
2019-04-07T21:50:23.593Z,16.05
2019-04-07T21:53:12.108Z,16.17
2019-04-07T21:56:01.684Z,15.55
2019-04-07T21:59:01.230Z,15.25
2019-04-07T22:01:43.269Z,15.68
2019-04-07T22:04:25.289Z,16.02
2019-04-07T22:07:13.235Z,14.33
2019-04-07T22:09:52.109Z,16.70
2019-04-07T22:12:28.045Z,15.20
2019-04-07T22:14:57.727Z,15.72
2019-04-07T22:17:32.599Z,14.23
2019-04-07T22:20:02.713Z,16.73
2019-04-07T22:22:34.060Z,17.07
2019-04-07T22:25:07.142Z,16.45
2019-04-07T22:27:39.380Z,15.90
2019-04-07T22:30:13.174Z,16.30
2019-04-07T22:32:44.827Z,17.20
2019-04-07T22:35:16.955Z,15.58
2019-04-07T22:37:49.991Z,15.38
2019-04-07T22:40:21.968Z,14.40
2019-04-07T22:45:27.773Z,13.68
2019-04-07T22:47:57.165Z,13.55
2019-04-07T22:50:28.612Z,13.70
2019-04-07T22:53:00.183Z,14.80
2019-04-07T22:55:34.268Z,15.23
2019-04-07T22:58:05.398Z,14.30
2019-04-07T23:00:38.218Z,14.68
2019-04-07T23:03:09.983Z,13.95
2019-04-07T23:05:41.606Z,16.37
2019-04-07T23:08:12.930Z,15.38
2019-04-07T23:10:44.549Z,13.78
2019-04-07T23:13:15.774Z,13.20
2019-04-07T23:15:47.739Z,13.93
2019-04-07T23:18:20.676Z,14.40
2019-04-07T23:20:52.405Z,14.10
2019-04-07T23:23:23.920Z,15.23
2019-04-07T23:25:56.106Z,12.63
2019-04-07T23:31:08.260Z,12.75
2019-04-07T23:33:39.828Z,13.98
2019-04-07T23:36:11.603Z,13.50
2019-04-07T23:38:43.898Z,14.07
2019-04-07T23:41:15.925Z,13.22
2019-04-07T23:43:47.139Z,13.98
2019-04-07T23:46:24.281Z,12.58
2019-04-07T23:48:52.238Z,13.58
2019-04-07T23:51:23.862Z,13.03
2019-04-07T23:54:14.526Z,13.28
2019-04-07T23:56:45.814Z,12.35
2019-04-07T23:59:17.126Z,13.20
